Terminal Aerodrome Forecast
Issued by NWS

Home | Current Version | Previous Version | Text Only | Print | Product List | Glossary On
Versions: 1 2 3 4 5 6 7 8 9 10 11 12 13 14 15 16 17 18 19
562
FTUS42 KJAX 110541
TAFCRG
TAF
KCRG 110541Z 1106/1206 03006KT P6SM VCSH SCT025 OVC035
     FM111400 10010KT P6SM SCT025 BKN040
     FM111900 13010KT P6SM VCSH BKN040
     FM112300 09003KT P6SM VCSH SCT015 BKN025=

USA.gov is the U.S. government's official web portal to all federal, state and local government web resources and services.